Time;durP1;ratioP1;P1;durP2;ratioP2;P2;SDS_P1;SDS_P2;PMS_P1;PMS_P2;Temp;Humidity;BMP_temperature;BMP_pressure;BME280_temperature;BME280_humidity;BME280_pressure;Samples;Min_cycle;Max_cycle;Signal;HPM_P1;HPM_P2
2024/03/10 00:02:04;;;;;;;21.37;10.83;;;7.70;99.90;;;;;;6160340;23;20425;-67
2024/03/10 00:04:31;;;;;;;27.63;11.87;;;7.70;99.90;;;;;;6159196;23;20493;-67
2024/03/10 00:06:58;;;;;;;26.33;11.97;;;7.70;99.90;;;;;;6158815;23;20406;-66
2024/03/10 00:09:25;;;;;;;28.00;13.00;;;7.70;99.90;;;;;;6160170;23;20406;-65
2024/03/10 00:11:54;;;;;;;24.07;12.83;;;7.70;99.90;;;;;;6160028;23;20881;-65
2024/03/10 00:14:21;;;;;;;22.10;11.30;;;7.60;99.90;;;;;;6159873;23;20492;-66
2024/03/10 00:16:48;;;;;;;53.80;21.10;;;7.60;99.90;;;;;;6160240;23;20457;-69
2024/03/10 00:19:16;;;;;;;28.43;14.63;;;7.80;99.90;;;;;;6161929;23;20399;-67
2024/03/10 00:21:44;;;;;;;26.90;14.43;;;7.60;99.90;;;;;;6162577;23;21039;-66
2024/03/10 00:24:11;;;;;;;25.97;14.40;;;7.60;99.90;;;;;;6164475;23;20413;-67
2024/03/10 00:26:38;;;;;;;32.97;12.63;;;7.60;99.90;;;;;;6162768;23;20405;-67
2024/03/10 00:29:07;;;;;;;23.83;13.20;;;7.50;99.90;;;;;;6162164;23;20406;-66
2024/03/10 00:31:34;;;;;;;21.53;11.77;;;7.50;99.90;;;;;;6163825;23;20410;-66
2024/03/10 00:34:05;;;;;;;26.13;12.30;;;7.50;99.90;;;;;;6162085;23;20849;-67
2024/03/10 00:36:32;;;;;;;27.03;13.77;;;7.50;99.90;;;;;;6162414;23;20482;-66
2024/03/10 00:38:59;;;;;;;22.80;11.10;;;7.50;99.90;;;;;;6164179;23;20413;-66
2024/03/10 00:41:26;;;;;;;21.23;11.90;;;7.50;99.90;;;;;;6164719;23;20417;-66
2024/03/10 00:43:53;;;;;;;22.23;11.83;;;7.50;99.90;;;;;;6164334;23;20406;-67
2024/03/10 00:46:22;;;;;;;20.10;10.73;;;7.50;99.90;;;;;;6165551;23;20433;-66
2024/03/10 00:48:48;;;;;;;25.00;13.00;;;7.40;99.90;;;;;;6168839;23;20473;-65
2024/03/10 00:51:15;;;;;;;20.83;12.57;;;7.50;99.90;;;;;;6166436;23;20417;-66
2024/03/10 00:53:42;;;;;;;22.50;11.20;;;7.40;99.90;;;;;;6166282;23;20446;-66
2024/03/10 00:56:09;;;;;;;22.77;12.63;;;7.40;99.90;;;;;;6170257;23;20446;-67
2024/03/10 00:58:36;;;;;;;19.53;10.53;;;7.40;99.90;;;;;;6166022;23;20972;-66
2024/03/10 01:01:04;;;;;;;19.77;11.10;;;7.40;99.90;;;;;;6171314;23;20410;-66
2024/03/10 01:03:32;;;;;;;21.10;12.10;;;7.40;99.90;;;;;;6171086;23;20513;-67
2024/03/10 01:06:02;;;;;;;19.23;10.33;;;7.40;99.90;;;;;;6168754;23;20429;-66
2024/03/10 01:08:29;;;;;;;19.43;12.53;;;7.40;99.90;;;;;;6165552;23;20410;-66
2024/03/10 01:10:56;;;;;;;22.43;11.27;;;7.40;99.90;;;;;;6170209;23;20437;-67
2024/03/10 01:13:23;;;;;;;20.20;10.60;;;7.40;99.90;;;;;;6167747;23;20426;-66
2024/03/10 01:15:51;;;;;;;22.53;12.10;;;7.40;99.90;;;;;;6167797;23;20490;-67
2024/03/10 01:18:18;;;;;;;22.80;11.37;;;7.30;99.90;;;;;;6166017;23;20403;-66
2024/03/10 01:20:47;;;;;;;17.97;10.43;;;7.30;99.90;;;;;;6158769;23;20418;-65
2024/03/10 01:23:14;;;;;;;20.93;12.33;;;7.20;99.90;;;;;;6157702;23;20449;-67
2024/03/10 01:25:41;;;;;;;18.50;10.93;;;7.20;99.90;;;;;;6157223;23;20439;-66
2024/03/10 01:28:08;;;;;;;28.40;11.93;;;7.20;99.90;;;;;;6156134;23;20468;-66
2024/03/10 01:30:35;;;;;;;22.40;12.57;;;7.20;99.90;;;;;;6156122;23;20406;-65
2024/03/10 01:33:02;;;;;;;19.40;12.63;;;7.20;99.90;;;;;;6155410;23;20458;-67
2024/03/10 01:35:29;;;;;;;17.63;11.10;;;7.20;99.90;;;;;;6156522;23;20524;-67
2024/03/10 01:37:57;;;;;;;26.50;13.33;;;7.10;99.90;;;;;;6156277;23;20409;-66
2024/03/10 01:40:24;;;;;;;21.90;11.97;;;7.10;99.90;;;;;;6156259;23;20506;-67
2024/03/10 01:42:55;;;;;;;19.77;11.37;;;7.10;99.90;;;;;;6155059;23;20461;-66
2024/03/10 01:45:22;;;;;;;23.20;11.67;;;7.10;99.90;;;;;;6155660;23;20715;-65
2024/03/10 01:47:49;;;;;;;22.40;11.00;;;7.10;99.90;;;;;;6155446;23;20898;-66
2024/03/10 01:50:18;;;;;;;16.70;10.70;;;7.10;99.90;;;;;;6155624;23;20409;-66
2024/03/10 01:52:47;;;;;;;25.13;12.40;;;7.00;99.90;;;;;;6154601;23;20426;-66
2024/03/10 01:55:19;;;;;;;27.47;13.47;;;7.00;99.90;;;;;;6155557;23;20442;-65
2024/03/10 01:57:47;;;;;;;19.50;11.00;;;7.00;99.90;;;;;;6155108;23;20445;-67
2024/03/10 02:00:16;;;;;;;18.33;11.77;;;7.00;99.90;;;;;;6155088;23;20402;-66
2024/03/10 02:02:43;;;;;;;17.60;11.03;;;6.90;99.90;;;;;;6155062;23;20822;-66
2024/03/10 02:05:10;;;;;;;20.57;11.20;;;6.90;99.90;;;;;;6155167;23;20452;-66
2024/03/10 02:07:37;;;;;;;21.77;11.30;;;6.90;99.90;;;;;;6155084;23;20408;-67
2024/03/10 02:10:06;;;;;;;23.30;12.07;;;6.80;99.90;;;;;;6155640;23;20738;-66
2024/03/10 02:12:35;;;;;;;21.47;10.50;;;6.80;99.90;;;;;;6154899;23;20784;-66
2024/03/10 02:15:06;;;;;;;21.50;11.77;;;6.80;99.90;;;;;;6155339;23;21040;-66
2024/03/10 02:17:36;;;;;;;23.90;13.23;;;6.80;99.90;;;;;;6155450;23;20697;-65
2024/03/10 02:20:04;;;;;;;20.60;11.30;;;6.80;99.90;;;;;;6155309;23;20413;-66
2024/03/10 02:22:31;;;;;;;21.43;12.40;;;6.80;99.90;;;;;;6155133;23;20836;-66
2024/03/10 02:24:59;;;;;;;24.40;12.80;;;6.70;99.90;;;;;;6155480;23;20429;-66
2024/03/10 02:27:29;;;;;;;21.47;12.70;;;6.70;99.90;;;;;;6156628;23;20489;-66
2024/03/10 02:30:18;;;;;;;20.43;12.87;;;6.70;99.90;;;;;;6158949;23;20406;-66
2024/03/10 02:49:19;;;;;;;28.70;13.53;;;6.60;99.90;;;;;;6155161;23;20375;-66
2024/03/10 02:51:46;;;;;;;22.60;11.13;;;6.50;99.90;;;;;;6154282;23;20422;-65
2024/03/10 02:54:13;;;;;;;28.60;14.13;;;6.50;99.90;;;;;;6155065;23;20465;-65
2024/03/10 02:56:39;;;;;;;23.33;11.70;;;6.60;99.90;;;;;;6154641;23;20477;-67
2024/03/10 02:59:08;;;;;;;24.57;13.70;;;6.50;99.90;;;;;;6154582;23;20407;-66
2024/03/10 03:01:38;;;;;;;29.43;13.27;;;6.50;99.90;;;;;;6154234;23;20406;-65
2024/03/10 03:04:05;;;;;;;27.03;15.00;;;6.40;99.90;;;;;;6154365;23;20462;-66
2024/03/10 03:06:32;;;;;;;27.27;14.07;;;6.40;99.90;;;;;;6154912;23;20409;-66
2024/03/10 03:08:59;;;;;;;22.30;12.93;;;6.40;99.90;;;;;;6155442;23;20402;-67
2024/03/10 03:11:26;;;;;;;33.87;15.93;;;6.40;99.90;;;;;;6156864;23;20406;-66
2024/03/10 03:13:53;;;;;;;25.40;14.90;;;6.40;99.90;;;;;;6159010;23;20438;-65
2024/03/10 03:16:21;;;;;;;36.30;15.77;;;6.30;99.90;;;;;;6157406;23;20474;-65
2024/03/10 03:18:48;;;;;;;29.57;14.53;;;6.40;99.90;;;;;;6156415;23;20402;-66
2024/03/10 03:21:15;;;;;;;22.30;13.17;;;6.30;99.90;;;;;;6155746;23;20438;-67
2024/03/10 03:23:42;;;;;;;25.97;15.07;;;6.30;99.90;;;;;;6157019;23;20799;-65
2024/03/10 03:26:09;;;;;;;26.13;14.60;;;6.30;99.90;;;;;;6154624;23;20398;-65
2024/03/10 03:28:36;;;;;;;26.37;12.87;;;6.30;99.90;;;;;;6154489;23;20439;-66
2024/03/10 03:31:03;;;;;;;28.00;14.60;;;6.20;99.90;;;;;;6154392;23;20426;-66
2024/03/10 03:33:31;;;;;;;24.70;14.10;;;6.20;99.90;;;;;;6153983;23;20436;-66
2024/03/10 03:35:58;;;;;;;29.90;15.60;;;6.20;99.90;;;;;;6154198;23;20497;-65
2024/03/10 03:38:25;;;;;;;27.27;15.70;;;6.20;99.90;;;;;;6154677;23;20456;-65
2024/03/10 03:40:52;;;;;;;28.70;14.80;;;6.20;99.90;;;;;;6154281;23;20481;-66
2024/03/10 03:43:19;;;;;;;35.90;18.07;;;6.20;99.90;;;;;;6154949;23;20473;-66
2024/03/10 03:45:46;;;;;;;31.10;16.10;;;6.20;99.90;;;;;;6155756;23;20402;-67
2024/03/10 03:48:13;;;;;;;28.37;16.97;;;6.10;99.90;;;;;;6157288;23;20499;-65
2024/03/10 03:50:41;;;;;;;27.27;15.50;;;6.20;99.90;;;;;;6159363;23;20968;-67
2024/03/10 03:53:08;;;;;;;28.13;15.53;;;6.10;99.90;;;;;;6157013;23;20457;-66
2024/03/10 03:55:35;;;;;;;28.47;15.23;;;6.10;99.90;;;;;;6154224;23;21058;-66
2024/03/10 03:58:02;;;;;;;23.57;13.90;;;6.00;99.90;;;;;;6154313;23;20433;-66
2024/03/10 04:00:30;;;;;;;29.70;16.40;;;6.00;99.90;;;;;;6154350;23;20492;-66
2024/03/10 04:02:57;;;;;;;33.03;15.93;;;6.00;99.90;;;;;;6153522;23;20481;-66
2024/03/10 04:05:24;;;;;;;30.07;16.77;;;6.00;99.90;;;;;;6154288;23;20928;-66
2024/03/10 04:07:52;;;;;;;38.97;17.70;;;6.00;99.90;;;;;;6154525;23;20403;-66
2024/03/10 04:10:19;;;;;;;32.93;16.67;;;6.00;99.90;;;;;;6154142;23;20489;-66
2024/03/10 04:12:47;;;;;;;35.37;18.07;;;6.00;99.90;;;;;;6153308;23;20426;-66
2024/03/10 04:15:14;;;;;;;32.00;17.13;;;5.90;99.90;;;;;;6153936;23;20488;-66
2024/03/10 04:17:43;;;;;;;34.10;15.07;;;5.90;99.90;;;;;;6154130;23;20889;-66
2024/03/10 04:20:12;;;;;;;27.97;15.70;;;5.80;99.90;;;;;;6154395;23;20406;-66
2024/03/10 04:22:39;;;;;;;42.27;18.23;;;5.80;99.90;;;;;;6153991;23;20431;-66
2024/03/10 04:25:08;;;;;;;31.87;15.87;;;5.80;99.90;;;;;;6157563;23;20706;-66
2024/03/10 04:27:36;;;;;;;43.43;21.70;;;5.80;99.90;;;;;;6160366;23;20406;-65
2024/03/10 04:30:04;;;;;;;38.93;17.63;;;5.80;99.90;;;;;;6160406;23;20432;-65
2024/03/10 04:32:31;;;;;;;33.90;17.07;;;5.80;99.90;;;;;;6160048;23;20697;-66
2024/03/10 04:34:58;;;;;;;35.77;18.23;;;5.80;99.90;;;;;;6160012;23;20406;-65
2024/03/10 04:37:27;;;;;;;40.63;18.63;;;5.80;99.90;;;;;;6153625;23;20448;-66
2024/03/10 04:39:54;;;;;;;32.10;16.43;;;5.80;99.90;;;;;;6154031;23;20414;-65
2024/03/10 04:42:23;;;;;;;29.60;15.50;;;5.80;99.90;;;;;;6153492;23;20448;-66
2024/03/10 04:44:50;;;;;;;37.87;16.23;;;5.80;99.90;;;;;;6155866;23;20417;-66
2024/03/10 04:47:18;;;;;;;30.20;17.47;;;5.80;99.90;;;;;;6155671;23;20437;-66
2024/03/10 04:49:45;;;;;;;36.63;18.20;;;5.80;99.90;;;;;;6156602;23;20449;-65
2024/03/10 04:52:11;;;;;;;36.43;17.37;;;5.70;99.90;;;;;;6159879;23;20426;-66
2024/03/10 04:54:38;;;;;;;38.20;18.80;;;5.80;99.90;;;;;;6157655;23;20433;-66
2024/03/10 04:57:06;;;;;;;33.70;15.70;;;5.70;99.90;;;;;;6155711;23;20802;-66
2024/03/10 04:59:36;;;;;;;36.53;17.67;;;5.70;99.90;;;;;;6155691;23;20494;-65
2024/03/10 05:02:03;;;;;;;34.17;17.00;;;5.70;99.90;;;;;;6154893;23;20517;-65
2024/03/10 05:04:30;;;;;;;35.43;17.90;;;5.70;99.90;;;;;;6155651;23;20421;-66
2024/03/10 05:06:56;;;;;;;35.50;16.60;;;5.70;99.90;;;;;;6155573;23;20449;-66
2024/03/10 05:09:23;;;;;;;33.10;17.73;;;5.70;99.90;;;;;;6155935;23;20429;-65
2024/03/10 05:11:50;;;;;;;37.80;18.00;;;5.70;99.90;;;;;;6155781;23;20513;-66
2024/03/10 05:14:17;;;;;;;33.30;17.50;;;5.70;99.90;;;;;;6156220;23;20464;-66
2024/03/10 05:16:45;;;;;;;33.97;18.57;;;5.60;99.90;;;;;;6155636;23;20442;-66
2024/03/10 05:19:12;;;;;;;37.17;18.23;;;5.60;99.90;;;;;;6156356;23;20410;-66
2024/03/10 05:21:39;;;;;;;31.07;18.63;;;5.60;99.90;;;;;;6155368;23;20423;-65
2024/03/10 05:24:07;;;;;;;37.30;15.70;;;5.60;99.90;;;;;;6156278;23;20426;-66
2024/03/10 05:26:34;;;;;;;39.43;18.40;;;5.60;99.90;;;;;;6156656;23;20398;-65
2024/03/10 05:29:01;;;;;;;35.87;17.43;;;5.60;99.90;;;;;;6155820;23;20920;-65
2024/03/10 05:31:29;;;;;;;35.00;17.43;;;5.60;99.90;;;;;;6154768;23;20410;-66
2024/03/10 05:33:59;;;;;;;38.80;18.50;;;5.60;99.90;;;;;;6155841;23;20449;-66
2024/03/10 05:36:26;;;;;;;43.30;19.13;;;5.60;99.90;;;;;;6155078;23;20434;-66
2024/03/10 05:38:53;;;;;;;40.40;19.27;;;5.60;99.90;;;;;;6155850;23;20409;-66
2024/03/10 05:41:20;;;;;;;33.97;18.30;;;5.60;99.90;;;;;;6155415;23;20440;-67
2024/03/10 05:43:47;;;;;;;39.33;17.90;;;5.60;99.90;;;;;;6154427;23;20402;-66
2024/03/10 05:46:14;;;;;;;46.20;19.80;;;5.60;99.90;;;;;;6155231;23;20449;-66
2024/03/10 05:48:42;;;;;;;31.30;15.97;;;5.50;99.90;;;;;;6154882;23;20422;-66
2024/03/10 05:51:12;;;;;;;40.37;17.90;;;5.50;99.90;;;;;;6154599;23;20406;-65
2024/03/10 05:53:39;;;;;;;34.37;17.77;;;5.60;99.90;;;;;;6155016;23;20522;-66
2024/03/10 05:56:08;;;;;;;33.30;17.63;;;5.60;99.90;;;;;;6155984;23;20446;-66
2024/03/10 05:58:35;;;;;;;33.50;17.60;;;5.60;99.90;;;;;;6155276;23;20406;-66
2024/03/10 06:01:02;;;;;;;32.90;17.00;;;5.60;99.90;;;;;;6155508;23;20407;-67
2024/03/10 06:03:29;;;;;;;32.30;15.40;;;5.60;99.90;;;;;;6154906;23;20591;-66
2024/03/10 06:05:57;;;;;;;35.87;16.70;;;5.60;99.90;;;;;;6155534;23;20402;-66
2024/03/10 06:08:25;;;;;;;33.53;16.40;;;5.60;99.90;;;;;;6155560;23;20436;-67
2024/03/10 06:10:53;;;;;;;39.90;17.50;;;5.60;99.90;;;;;;6155788;23;20607;-66
2024/03/10 06:13:20;;;;;;;33.57;16.37;;;5.70;99.90;;;;;;6156543;23;20952;-66
2024/03/10 06:15:47;;;;;;;30.10;16.30;;;5.70;99.90;;;;;;6159031;23;20402;-66
2024/03/10 06:18:21;;;;;;;28.13;16.87;;;5.60;99.90;;;;;;6159519;23;20438;-66
2024/03/10 06:26:15;;;;;;;35.03;16.90;;;5.70;99.90;;;;;;6155552;23;20882;-66
2024/03/10 06:28:42;;;;;;;35.00;17.27;;;5.70;99.90;;;;;;6157219;23;20413;-66
2024/03/10 06:31:09;;;;;;;36.43;17.17;;;5.70;99.90;;;;;;6156835;23;20932;-65
2024/03/10 06:33:38;;;;;;;37.40;17.30;;;5.80;99.90;;;;;;6155068;23;20441;-66
2024/03/10 06:36:08;;;;;;;32.50;16.57;;;5.80;99.90;;;;;;6154838;23;20478;-66
2024/03/10 06:38:39;;;;;;;34.10;18.53;;;5.80;99.90;;;;;;6154494;23;20757;-66
2024/03/10 06:41:07;;;;;;;34.10;16.67;;;5.90;99.90;;;;;;6155626;23;20383;-67
2024/03/10 06:43:33;;;;;;;34.40;17.77;;;5.90;99.90;;;;;;6154423;23;20426;-67
2024/03/10 06:46:00;;;;;;;33.10;16.60;;;5.90;99.90;;;;;;6154789;23;20433;-66
2024/03/10 06:48:28;;;;;;;30.43;16.37;;;6.00;99.90;;;;;;6155083;23;20397;-65
2024/03/10 06:50:54;;;;;;;38.10;17.70;;;6.10;99.90;;;;;;6155160;23;20750;-65
2024/03/10 06:53:22;;;;;;;31.77;17.87;;;6.10;99.90;;;;;;6154229;23;20745;-66
2024/03/10 06:55:50;;;;;;;33.57;16.70;;;6.20;99.90;;;;;;6155779;23;20437;-65
2024/03/10 06:58:17;;;;;;;27.87;15.27;;;6.20;99.90;;;;;;6156231;23;20442;-66
2024/03/10 07:00:44;;;;;;;33.90;17.83;;;6.30;99.90;;;;;;6156584;23;20406;-66
2024/03/10 07:03:11;;;;;;;28.53;15.67;;;6.30;99.90;;;;;;6156686;23;20422;-66
2024/03/10 07:05:39;;;;;;;35.00;16.30;;;6.30;99.90;;;;;;6157670;23;20413;-66
2024/03/10 07:08:07;;;;;;;31.77;16.93;;;6.40;99.90;;;;;;6164363;23;20434;-66
2024/03/10 07:10:36;;;;;;;30.23;16.70;;;6.50;99.90;;;;;;6157333;23;20409;-66
2024/03/10 07:13:05;;;;;;;26.73;14.03;;;6.50;99.90;;;;;;6154600;23;20434;-66
2024/03/10 07:15:32;;;;;;;34.57;17.03;;;6.60;99.90;;;;;;6154690;23;20492;-71
2024/03/10 07:17:59;;;;;;;27.70;14.50;;;6.70;99.90;;;;;;6154527;23;20929;-66
2024/03/10 07:20:26;;;;;;;27.70;16.50;;;6.70;99.90;;;;;;6155298;23;20453;-66
2024/03/10 07:22:59;;;;;;;26.87;15.67;;;6.70;99.90;;;;;;6156041;23;20415;-67
2024/03/10 07:25:26;;;;;;;32.30;16.13;;;6.80;99.90;;;;;;6157134;23;20402;-66
2024/03/10 07:27:53;;;;;;;27.77;15.03;;;6.90;99.90;;;;;;6155234;23;20407;-66
2024/03/10 07:30:21;;;;;;;35.97;17.10;;;7.00;99.90;;;;;;6154683;23;20402;-65
2024/03/10 07:32:49;;;;;;;35.13;17.23;;;7.10;99.90;;;;;;6154455;23;20421;-67
2024/03/10 07:35:16;;;;;;;26.77;15.17;;;7.20;99.90;;;;;;6154662;23;20402;-65
2024/03/10 07:37:44;;;;;;;30.63;16.00;;;7.30;99.90;;;;;;6154421;23;20476;-66
2024/03/10 07:40:16;;;;;;;28.43;16.83;;;7.40;99.90;;;;;;6154354;23;20735;-66
2024/03/10 07:42:44;;;;;;;36.00;15.83;;;7.50;99.90;;;;;;6153660;23;20423;-66
2024/03/10 07:45:11;;;;;;;29.10;15.47;;;7.60;99.90;;;;;;6154283;23;20406;-66
2024/03/10 07:47:41;;;;;;;31.50;16.87;;;7.60;99.90;;;;;;6153816;23;20406;-66
2024/03/10 07:50:09;;;;;;;26.93;14.47;;;7.70;99.90;;;;;;6154213;23;20892;-66
2024/03/10 07:52:36;;;;;;;28.97;15.43;;;7.90;99.90;;;;;;6154743;23;20433;-67
2024/03/10 07:55:04;;;;;;;29.37;15.40;;;8.00;99.90;;;;;;6154999;23;20732;-65
2024/03/10 07:57:31;;;;;;;30.30;14.70;;;8.00;99.90;;;;;;6154997;23;20500;-66
2024/03/10 07:59:58;;;;;;;25.17;15.30;;;8.20;99.90;;;;;;6155664;23;20410;-66
2024/03/10 08:02:26;;;;;;;33.40;15.80;;;8.30;99.90;;;;;;6153446;23;20936;-66
2024/03/10 08:04:54;;;;;;;29.10;14.67;;;8.40;99.90;;;;;;6154908;23;20410;-65
2024/03/10 08:07:21;;;;;;;33.30;15.90;;;8.50;99.90;;;;;;6154720;23;20398;-66
2024/03/10 08:09:48;;;;;;;30.70;15.60;;;8.50;99.90;;;;;;6154338;23;20464;-70
2024/03/10 08:12:15;;;;;;;29.10;15.23;;;8.60;99.90;;;;;;6154132;23;20453;-66
2024/03/10 08:14:42;;;;;;;26.47;17.00;;;8.70;99.90;;;;;;6154229;23;20461;-66
2024/03/10 08:17:09;;;;;;;29.00;16.87;;;8.80;99.90;;;;;;6154286;23;20843;-66
2024/03/10 08:19:36;;;;;;;26.70;15.00;;;9.00;99.90;;;;;;6156003;23;20885;-66
2024/03/10 08:22:05;;;;;;;30.20;15.53;;;9.10;99.90;;;;;;6156199;23;20426;-66
2024/03/10 08:24:32;;;;;;;26.90;15.27;;;9.30;99.90;;;;;;6156061;23;20629;-66
2024/03/10 08:26:59;;;;;;;26.20;14.90;;;9.40;99.90;;;;;;6156570;23;20399;-66
2024/03/10 08:29:26;;;;;;;26.37;14.30;;;9.50;99.90;;;;;;6155979;23;20440;-66
2024/03/10 08:31:55;;;;;;;31.23;16.90;;;9.60;99.90;;;;;;6156685;23;20450;-66
2024/03/10 08:34:23;;;;;;;27.80;15.30;;;9.70;99.90;;;;;;6156257;23;20726;-66
2024/03/10 08:36:50;;;;;;;26.63;14.53;;;9.80;99.90;;;;;;6155913;23;20438;-66
2024/03/10 08:39:21;;;;;;;26.60;14.97;;;9.90;99.90;;;;;;6155551;23;20402;-66
2024/03/10 08:41:50;;;;;;;32.23;17.17;;;10.00;99.90;;;;;;6155646;23;20936;-66
2024/03/10 08:44:17;;;;;;;31.73;16.70;;;10.10;99.90;;;;;;6156045;23;20410;-67
2024/03/10 08:46:44;;;;;;;30.23;16.60;;;10.20;99.90;;;;;;6155581;23;20472;-67
2024/03/10 08:49:11;;;;;;;31.43;16.03;;;10.40;99.90;;;;;;6155627;23;20406;-66
2024/03/10 08:51:38;;;;;;;28.80;14.90;;;10.50;99.90;;;;;;6155593;23;20774;-67
2024/03/10 08:54:07;;;;;;;27.77;14.90;;;10.70;99.90;;;;;;6155468;23;20922;-67
2024/03/10 08:56:39;;;;;;;23.83;15.27;;;11.00;99.90;;;;;;6155605;23;20413;-66
2024/03/10 08:59:09;;;;;;;21.73;13.90;;;11.60;99.90;;;;;;6155917;23;20719;-56
2024/03/10 09:01:36;;;;;;;23.00;13.27;;;12.70;99.90;;;;;;6155154;23;20741;-58
2024/03/10 09:04:03;;;;;;;27.70;16.03;;;14.00;99.90;;;;;;6155271;23;20417;-57
2024/03/10 09:06:30;;;;;;;29.57;17.70;;;15.20;99.90;;;;;;6155259;23;20406;-57
2024/03/10 09:08:57;;;;;;;26.33;16.03;;;16.40;99.90;;;;;;6155884;23;20465;-57
2024/03/10 09:11:25;;;;;;;27.50;15.40;;;17.40;99.90;;;;;;6155492;23;20406;-59
2024/03/10 09:13:55;;;;;;;30.47;16.63;;;18.10;99.90;;;;;;6154072;23;20436;-55
2024/03/10 09:16:22;;;;;;;25.10;15.90;;;18.70;99.00;;;;;;6156351;23;20406;-57
2024/03/10 09:18:49;;;;;;;29.40;15.87;;;19.50;95.80;;;;;;6155069;23;20971;-57
2024/03/10 09:21:16;;;;;;;24.93;17.50;;;20.20;92.10;;;;;;6156747;23;20490;-57
2024/03/10 09:23:44;;;;;;;22.17;15.47;;;20.60;89.10;;;;;;6156165;23;20418;-57
2024/03/10 09:26:11;;;;;;;33.43;19.87;;;20.70;84.90;;;;;;6159453;23;20403;-55
2024/03/10 09:28:38;;;;;;;22.20;16.00;;;20.60;83.30;;;;;;6157317;23;20411;-56
2024/03/10 09:31:07;;;;;;;21.97;16.43;;;20.60;81.50;;;;;;6155546;23;20414;-58
2024/03/10 09:33:34;;;;;;;25.20;16.40;;;20.20;80.60;;;;;;6155442;23;20917;-58
2024/03/10 09:36:01;;;;;;;25.80;15.70;;;19.60;81.60;;;;;;6155963;23;20767;-56
2024/03/10 09:38:28;;;;;;;24.97;16.07;;;19.00;83.20;;;;;;6156371;23;20453;-57
2024/03/10 09:40:59;;;;;;;21.23;15.67;;;18.30;85.30;;;;;;6157963;23;20421;-54
2024/03/10 09:43:26;;;;;;;24.17;15.10;;;17.60;87.40;;;;;;6155572;23;20422;-57
2024/03/10 09:45:54;;;;;;;23.33;15.20;;;17.10;90.40;;;;;;6154652;23;20410;-57
2024/03/10 09:48:24;;;;;;;25.43;15.60;;;16.70;91.20;;;;;;6125742;23;20395;-55
2024/03/10 09:50:51;;;;;;;28.30;14.90;;;16.40;92.60;;;;;;6124238;23;20403;-55
2024/03/10 09:53:19;;;;;;;25.33;15.10;;;16.30;93.60;;;;;;6124070;23;20427;-55
2024/03/10 09:55:48;;;;;;;25.50;15.00;;;16.50;94.00;;;;;;6122241;23;21318;-56
2024/03/10 09:58:17;;;;;;;27.20;17.00;;;16.80;93.40;;;;;;6124137;23;20976;-57
2024/03/10 10:00:46;;;;;;;22.80;15.13;;;16.90;93.50;;;;;;6124770;23;20907;-55
2024/03/10 10:03:15;;;;;;;30.00;19.03;;;17.00;93.50;;;;;;6124329;23;20427;-56
2024/03/10 10:05:47;;;;;;;23.90;15.20;;;17.10;93.40;;;;;;6125626;23;20445;-55
2024/03/10 10:08:14;;;;;;;26.27;14.83;;;17.40;93.00;;;;;;6125050;23;20451;-54
2024/03/10 10:10:43;;;;;;;22.17;14.77;;;17.50;93.60;;;;;;6124756;23;20490;-55
2024/03/10 10:13:21;;;;;;;21.90;15.10;;;17.40;92.90;;;;;;6123948;23;20433;-66
2024/03/10 10:15:48;;;;;;;19.77;13.10;;;17.20;92.90;;;;;;6125205;23;20387;-66
2024/03/10 10:18:16;;;;;;;22.17;13.90;;;17.00;92.90;;;;;;6125345;23;20482;-66
2024/03/10 10:20:48;;;;;;;21.40;14.20;;;16.70;93.50;;;;;;6125122;23;20502;-66
2024/03/10 10:23:15;;;;;;;23.27;14.97;;;16.30;94.30;;;;;;6124473;23;20431;-66
2024/03/10 10:32:07;;;;;;;23.77;15.07;;;16.40;95.10;;;;;;6125148;23;20705;-67
2024/03/10 10:34:35;;;;;;;23.73;15.00;;;16.60;95.40;;;;;;6124473;23;20411;-67
2024/03/10 10:37:03;;;;;;;22.57;14.37;;;16.80;95.30;;;;;;6124665;23;20965;-67
2024/03/10 10:39:33;;;;;;;27.97;15.60;;;16.80;95.10;;;;;;6124478;23;20408;-67
2024/03/10 10:42:00;;;;;;;29.03;16.70;;;17.00;95.10;;;;;;6125922;23;20481;-68
2024/03/10 10:44:27;;;;;;;26.87;16.00;;;17.40;94.80;;;;;;6126055;23;20955;-67
2024/03/10 10:46:54;;;;;;;23.40;13.90;;;18.00;93.80;;;;;;6138288;23;20445;-67
2024/03/10 10:49:22;;;;;;;24.63;15.37;;;18.50;93.00;;;;;;6156099;23;20497;-67
2024/03/10 10:51:50;;;;;;;28.20;17.20;;;18.80;92.40;;;;;;6156467;23;20724;-68
2024/03/10 10:54:19;;;;;;;20.37;14.07;;;19.00;91.80;;;;;;6157620;23;20508;-67
2024/03/10 10:56:54;;;;;;;26.20;15.43;;;19.30;91.00;;;;;;6157469;23;20402;-68
2024/03/10 10:59:24;;;;;;;22.50;15.83;;;19.60;90.50;;;;;;6155591;23;20433;-67
2024/03/10 11:01:55;;;;;;;24.20;14.83;;;19.50;89.10;;;;;;6154700;23;20421;-66
2024/03/10 11:04:25;;;;;;;21.67;14.00;;;19.10;89.40;;;;;;6154891;23;20754;-67
2024/03/10 11:06:57;;;;;;;22.23;14.93;;;18.80;90.00;;;;;;6155645;23;20406;-67
2024/03/10 11:09:30;;;;;;;21.87;13.97;;;18.40;90.40;;;;;;6155564;23;20387;-67
2024/03/10 11:11:58;;;;;;;22.50;15.43;;;18.00;91.00;;;;;;6154890;23;20438;-69
2024/03/10 11:14:26;;;;;;;30.30;17.37;;;17.50;91.60;;;;;;6155740;23;20742;-68
2024/03/10 11:17:12;;;;;;;25.77;14.80;;;17.20;92.50;;;;;;6155725;23;20406;-68
2024/03/10 11:19:40;;;;;;;24.93;14.17;;;16.80;93.00;;;;;;6155591;23;20418;-67
2024/03/10 11:22:09;;;;;;;24.30;14.07;;;16.50;94.10;;;;;;6155103;23;20422;-68
2024/03/10 11:24:39;;;;;;;27.40;15.63;;;16.20;94.60;;;;;;6155657;23;20412;-67
2024/03/10 11:27:16;;;;;;;24.80;15.23;;;15.90;95.00;;;;;;6155272;23;20403;-66
2024/03/10 11:29:43;;;;;;;24.57;13.50;;;15.60;96.50;;;;;;6155474;23;20470;-66
2024/03/10 11:32:43;;;;;;;25.60;15.20;;;15.50;96.80;;;;;;6154608;23;20952;-67
2024/03/10 11:35:13;;;;;;;24.23;14.77;;;15.30;97.90;;;;;;6065155;23;20516;-66
2024/03/10 11:37:40;;;;;;;24.67;15.33;;;15.10;98.20;;;;;;6068742;23;20445;-66
2024/03/10 11:40:15;;;;;;;24.90;15.27;;;15.00;99.00;;;;;;6113373;23;20896;-67
2024/03/10 11:42:43;;;;;;;26.90;16.17;;;14.90;99.60;;;;;;6160799;23;20418;-67
2024/03/10 11:45:12;;;;;;;25.77;17.17;;;14.80;99.90;;;;;;6159615;23;20481;-68
2024/03/10 11:47:39;;;;;;;33.00;18.80;;;14.80;99.90;;;;;;6158095;23;20476;-67
2024/03/10 11:50:07;;;;;;;28.10;16.80;;;14.70;99.90;;;;;;6157314;23;20783;-65
2024/03/10 11:52:34;;;;;;;26.77;16.30;;;14.60;99.90;;;;;;6156460;23;20506;-67
2024/03/10 11:55:10;;;;;;;26.07;14.80;;;14.60;99.90;;;;;;6157892;23;20444;-67
2024/03/10 11:57:39;;;;;;;26.23;15.77;;;14.60;99.90;;;;;;6158509;23;20445;-67
2024/03/10 12:00:09;;;;;;;21.77;14.00;;;14.60;99.90;;;;;;6157871;23;20414;-67
2024/03/10 12:02:36;;;;;;;22.77;12.23;;;14.60;99.90;;;;;;6157825;23;20893;-67
2024/03/10 12:05:05;;;;;;;21.07;12.70;;;14.70;99.90;;;;;;6156841;23;20467;-67
2024/03/10 12:07:34;;;;;;;31.87;13.00;;;14.60;99.90;;;;;;6156444;23;20434;-66
2024/03/10 12:10:08;;;;;;;21.47;13.40;;;14.60;99.90;;;;;;6156494;23;20409;-68
2024/03/10 12:12:38;;;;;;;24.00;13.90;;;14.60;99.90;;;;;;6156054;23;20429;-67
2024/03/10 12:15:16;;;;;;;23.70;12.23;;;14.60;99.90;;;;;;6157010;23;20390;-66
2024/03/10 12:17:42;;;;;;;19.27;12.20;;;14.60;99.90;;;;;;6156945;23;20398;-68
2024/03/10 12:20:12;;;;;;;19.20;13.30;;;14.70;99.90;;;;;;6156114;23;20406;-67
2024/03/10 12:22:40;;;;;;;17.33;12.40;;;14.60;99.90;;;;;;6156350;23;20513;-68
2024/03/10 12:25:09;;;;;;;19.47;12.23;;;14.60;99.90;;;;;;6128824;23;20801;-67
2024/03/10 12:27:39;;;;;;;19.93;13.50;;;14.50;99.90;;;;;;6156258;23;20888;-67
2024/03/10 12:30:09;;;;;;;20.67;11.80;;;14.50;99.90;;;;;;6156750;23;20408;-67
2024/03/10 12:32:44;;;;;;;19.23;12.73;;;14.50;99.90;;;;;;6155534;23;20422;-67
2024/03/10 12:35:11;;;;;;;23.03;13.33;;;14.40;99.90;;;;;;6156536;23;20370;-66
2024/03/10 12:37:40;;;;;;;22.20;14.23;;;14.30;99.90;;;;;;6155477;23;20413;-64
2024/03/10 12:40:14;;;;;;;22.30;12.00;;;14.30;99.90;;;;;;6155839;23;20406;-65
2024/03/10 12:42:43;;;;;;;20.93;13.10;;;14.20;99.90;;;;;;6154818;23;20907;-66
2024/03/10 12:45:15;;;;;;;22.27;13.13;;;14.20;99.90;;;;;;6155366;23;20490;-67
2024/03/10 12:47:44;;;;;;;21.30;12.37;;;14.10;99.90;;;;;;6155274;23;20417;-66
2024/03/10 12:50:12;;;;;;;20.03;13.60;;;14.20;99.90;;;;;;6155461;23;20729;-66
2024/03/10 12:52:39;;;;;;;28.80;13.03;;;14.10;99.90;;;;;;6155363;23;20434;-66
2024/03/10 12:55:08;;;;;;;23.03;12.63;;;14.10;99.90;;;;;;6156014;23;20721;-69
2024/03/10 12:57:36;;;;;;;16.33;11.10;;;14.10;99.90;;;;;;6156445;23;20797;-67
2024/03/10 13:00:22;;;;;;;18.63;12.00;;;14.10;99.90;;;;;;6156170;23;20434;-68
2024/03/10 13:02:51;;;;;;;23.90;13.17;;;14.10;99.90;;;;;;6155302;23;20485;-66
2024/03/10 13:05:18;;;;;;;24.00;12.50;;;14.10;99.90;;;;;;6154784;23;20410;-67
2024/03/10 13:07:45;;;;;;;23.63;13.20;;;14.20;99.90;;;;;;6155731;23;20425;-67